createdAt,value
2019-06-27T00:00:17.381Z,21.79
2019-06-27T00:01:25.469Z,21.69
2019-06-27T00:02:33.523Z,21.62
2019-06-27T00:03:41.599Z,21.69
2019-06-27T00:04:49.655Z,21.75
2019-06-27T00:05:57.714Z,21.65
2019-06-27T00:07:05.807Z,21.71
2019-06-27T00:08:13.872Z,21.64
2019-06-27T00:09:21.929Z,21.69
2019-06-27T00:10:30.005Z,21.65
2019-06-27T00:11:38.121Z,21.61
2019-06-27T00:12:46.214Z,21.61
2019-06-27T00:13:54.362Z,21.62
2019-06-27T00:15:02.300Z,21.64
2019-06-27T00:16:10.358Z,21.61
2019-06-27T00:17:18.423Z,21.59
2019-06-27T00:18:26.489Z,21.61
2019-06-27T00:19:34.555Z,21.52
2019-06-27T00:20:42.664Z,21.59
2019-06-27T00:21:50.691Z,21.50
2019-06-27T00:22:58.814Z,21.52
2019-06-27T00:24:06.833Z,21.52
2019-06-27T00:25:14.915Z,21.56
2019-06-27T00:26:22.988Z,21.46
2019-06-27T00:27:31.068Z,21.46
2019-06-27T00:28:39.138Z,21.50
2019-06-27T00:29:47.206Z,21.47
2019-06-27T00:30:55.256Z,21.34
2019-06-27T00:32:03.328Z,21.46
2019-06-27T00:33:11.433Z,21.38
2019-06-27T00:34:19.471Z,21.43
2019-06-27T00:35:27.526Z,21.43
2019-06-27T00:36:35.605Z,21.37
2019-06-27T00:37:43.683Z,21.44
2019-06-27T00:38:51.766Z,21.37
2019-06-27T00:39:59.853Z,21.38
2019-06-27T00:41:07.895Z,21.38
2019-06-27T00:42:15.930Z,21.38
2019-06-27T00:43:24.071Z,21.35
2019-06-27T00:44:32.097Z,21.32
2019-06-27T00:45:40.206Z,21.25
2019-06-27T00:46:48.223Z,21.29
2019-06-27T00:47:56.301Z,21.28
2019-06-27T00:49:04.374Z,21.28
2019-06-27T00:50:12.426Z,21.22
2019-06-27T00:51:20.502Z,21.34
2019-06-27T00:52:28.589Z,21.35
2019-06-27T00:53:36.657Z,21.31
2019-06-27T00:54:44.715Z,21.19
2019-06-27T00:55:52.791Z,21.25
2019-06-27T00:57:13.249Z,21.25
2019-06-27T00:58:08.935Z,21.24
2019-06-27T00:59:16.998Z,21.29
2019-06-27T01:00:25.059Z,21.19
2019-06-27T01:01:33.220Z,21.14
2019-06-27T01:02:41.224Z,21.24
2019-06-27T01:03:49.275Z,21.21
2019-06-27T01:04:57.354Z,21.24
2019-06-27T01:06:05.400Z,21.21
2019-06-27T01:07:13.481Z,21.13
2019-06-27T01:08:21.560Z,21.22
2019-06-27T01:09:29.617Z,21.17
2019-06-27T01:10:37.692Z,21.17
2019-06-27T01:11:45.762Z,21.10
2019-06-27T01:12:53.831Z,21.09
2019-06-27T01:14:01.924Z,21.13
2019-06-27T01:15:09.977Z,21.09
2019-06-27T01:16:18.053Z,21.10
2019-06-27T01:17:26.107Z,21.10
2019-06-27T01:18:34.208Z,21.09
2019-06-27T01:19:42.251Z,21.06
2019-06-27T01:20:50.306Z,21.06
2019-06-27T01:21:58.413Z,21.04
2019-06-27T01:23:06.450Z,21.04
2019-06-27T01:24:14.523Z,21.07
2019-06-27T01:25:22.589Z,20.97
2019-06-27T01:26:30.674Z,21.01
2019-06-27T01:27:38.742Z,20.94
2019-06-27T01:28:46.811Z,21.06
2019-06-27T01:29:54.957Z,20.92
2019-06-27T01:31:02.936Z,21.01
2019-06-27T01:32:11.006Z,20.95
2019-06-27T01:33:19.082Z,20.91
2019-06-27T01:34:27.174Z,20.88
2019-06-27T01:35:35.211Z,20.79
2019-06-27T01:36:43.275Z,20.79
2019-06-27T01:37:51.369Z,20.74
2019-06-27T01:38:59.436Z,20.82
2019-06-27T01:40:07.511Z,20.77
2019-06-27T01:41:15.578Z,20.74
2019-06-27T01:42:23.631Z,20.69
2019-06-27T01:43:31.708Z,20.64
2019-06-27T01:44:39.781Z,20.67
2019-06-27T01:45:47.850Z,20.74
2019-06-27T01:46:55.911Z,20.70
2019-06-27T01:48:03.973Z,20.64
2019-06-27T01:49:12.067Z,20.66
2019-06-27T01:50:20.108Z,20.62
2019-06-27T01:51:28.387Z,20.58
2019-06-27T01:52:36.465Z,20.52
2019-06-27T01:53:44.565Z,20.54
2019-06-27T01:54:52.622Z,20.50
2019-06-27T01:56:00.675Z,20.48
2019-06-27T01:57:08.735Z,20.47
2019-06-27T01:58:16.812Z,20.54
2019-06-27T01:59:24.879Z,20.42
2019-06-27T02:00:32.962Z,20.50
2019-06-27T02:01:41.004Z,20.47
2019-06-27T02:02:49.097Z,20.43
2019-06-27T02:03:57.176Z,20.42
2019-06-27T02:05:05.248Z,20.47
2019-06-27T02:06:13.285Z,20.47
2019-06-27T02:07:21.365Z,20.43
2019-06-27T02:08:29.436Z,20.42
2019-06-27T02:09:37.499Z,20.38
2019-06-27T02:10:45.578Z,20.32
2019-06-27T02:11:53.636Z,20.38
2019-06-27T02:13:01.707Z,20.31
2019-06-27T02:14:09.786Z,20.35
2019-06-27T02:15:17.851Z,20.32
2019-06-27T02:16:25.905Z,20.26
2019-06-27T02:17:33.976Z,20.23
2019-06-27T02:18:42.061Z,20.31
2019-06-27T02:19:50.134Z,20.23
2019-06-27T02:20:58.205Z,20.28
2019-06-27T02:22:06.265Z,20.28
2019-06-27T02:23:15.957Z,20.18
2019-06-27T02:24:22.390Z,20.17
2019-06-27T02:25:30.485Z,20.05
2019-06-27T02:26:38.563Z,20.11
2019-06-27T02:27:59.192Z,20.10
2019-06-27T02:28:54.672Z,20.02
2019-06-27T02:30:02.752Z,20.05
2019-06-27T02:31:10.823Z,19.99
2019-06-27T02:32:18.873Z,19.99
2019-06-27T02:33:26.963Z,20.05
2019-06-27T02:34:35.027Z,20.06
2019-06-27T02:35:43.099Z,19.95
2019-06-27T02:36:51.154Z,19.98
2019-06-27T02:37:59.206Z,19.88
2019-06-27T02:39:07.283Z,19.99
2019-06-27T02:40:15.372Z,19.92
2019-06-27T02:41:23.438Z,19.88
2019-06-27T02:42:31.501Z,19.86
2019-06-27T02:43:39.569Z,19.74
2019-06-27T02:44:47.650Z,19.80
2019-06-27T02:45:55.686Z,19.81
2019-06-27T02:47:03.787Z,19.77
2019-06-27T02:48:11.865Z,19.73
2019-06-27T02:49:19.923Z,19.66
2019-06-27T02:50:27.995Z,19.74
2019-06-27T02:51:36.030Z,19.61
2019-06-27T02:52:44.140Z,19.66
2019-06-27T02:53:52.195Z,19.62
2019-06-27T02:55:00.271Z,19.59
2019-06-27T02:56:08.327Z,19.59
2019-06-27T02:57:17.048Z,19.59
2019-06-27T02:58:30.385Z,19.56
2019-06-27T02:59:32.613Z,19.56
2019-06-27T03:00:43.849Z,19.46
2019-06-27T03:01:55.145Z,19.43
2019-06-27T03:03:02.599Z,19.44
2019-06-27T03:05:24.596Z,19.48
2019-06-27T03:06:34.259Z,19.47
2019-06-27T03:07:46.548Z,19.55
2019-06-27T03:08:54.650Z,19.47
2019-06-27T03:10:02.688Z,19.50
2019-06-27T03:11:10.785Z,19.51
2019-06-27T03:12:18.830Z,19.46
2019-06-27T03:13:26.914Z,19.51
2019-06-27T03:14:35.175Z,19.46
2019-06-27T03:15:43.243Z,19.46
2019-06-27T03:16:51.316Z,19.44
2019-06-27T03:17:59.389Z,19.43
2019-06-27T03:19:07.446Z,19.39
2019-06-27T03:20:15.520Z,19.40
2019-06-27T03:21:23.592Z,19.40
2019-06-27T03:22:31.659Z,19.40
2019-06-27T03:23:39.730Z,19.36
2019-06-27T03:24:47.787Z,19.36
2019-06-27T03:25:55.897Z,19.33
2019-06-27T03:27:03.931Z,19.36
2019-06-27T03:28:11.987Z,19.32
2019-06-27T03:29:20.477Z,19.37
2019-06-27T03:30:28.124Z,19.36
2019-06-27T03:31:36.186Z,19.29
2019-06-27T03:32:44.331Z,19.28
2019-06-27T03:33:52.390Z,19.31
2019-06-27T03:35:00.434Z,19.33
2019-06-27T03:36:08.483Z,19.19
2019-06-27T03:37:16.523Z,19.22
2019-06-27T03:38:24.638Z,19.33
2019-06-27T03:39:32.693Z,19.29
2019-06-27T03:40:40.754Z,19.23
2019-06-27T03:41:48.836Z,19.21
2019-06-27T03:42:56.885Z,19.25
2019-06-27T03:44:04.960Z,19.22
2019-06-27T03:45:15.500Z,19.21
2019-06-27T03:46:21.106Z,19.28
2019-06-27T03:47:29.174Z,19.23
2019-06-27T03:48:37.257Z,19.19
2019-06-27T03:49:45.309Z,19.22
2019-06-27T03:50:56.180Z,19.22
2019-06-27T03:52:01.450Z,19.19
2019-06-27T03:53:09.525Z,19.26
2019-06-27T03:54:17.583Z,19.31
2019-06-27T03:55:25.652Z,19.29
2019-06-27T03:56:33.710Z,19.25
2019-06-27T03:57:44.841Z,19.26
2019-06-27T03:59:06.333Z,19.29
2019-06-27T03:59:57.951Z,19.29
2019-06-27T04:01:05.991Z,19.37
2019-06-27T04:02:14.064Z,19.31
2019-06-27T04:03:22.139Z,19.29
2019-06-27T04:04:30.200Z,19.39
2019-06-27T04:05:38.277Z,19.44
2019-06-27T04:06:46.344Z,19.44
2019-06-27T04:07:54.424Z,19.44
2019-06-27T04:09:02.460Z,19.44
2019-06-27T04:10:10.540Z,19.48
2019-06-27T04:11:18.604Z,19.46
2019-06-27T04:12:26.697Z,19.54
2019-06-27T04:13:34.754Z,19.50
2019-06-27T04:14:42.816Z,19.54
2019-06-27T04:15:50.915Z,19.59
2019-06-27T04:16:58.964Z,19.56
2019-06-27T04:18:07.052Z,19.54
2019-06-27T04:19:15.099Z,19.66
2019-06-27T04:20:23.168Z,19.68
2019-06-27T04:21:31.226Z,19.63
2019-06-27T04:22:39.292Z,19.69
2019-06-27T04:23:47.377Z,19.74
2019-06-27T04:24:55.474Z,19.66
2019-06-27T04:26:03.509Z,19.74
2019-06-27T04:27:11.593Z,19.73
2019-06-27T04:28:19.658Z,19.73
2019-06-27T04:29:33.764Z,19.77
2019-06-27T04:30:35.760Z,19.84
2019-06-27T04:31:43.839Z,19.88
2019-06-27T04:32:51.909Z,19.80
2019-06-27T04:33:59.989Z,19.87
2019-06-27T04:35:08.062Z,19.87
2019-06-27T04:36:16.109Z,19.92
2019-06-27T04:37:24.183Z,19.87
2019-06-27T04:38:32.822Z,19.92
2019-06-27T04:39:40.357Z,19.92
2019-06-27T04:40:48.422Z,19.94
2019-06-27T04:41:56.478Z,19.88
2019-06-27T04:43:05.884Z,19.94
2019-06-27T04:44:12.616Z,19.92
2019-06-27T04:45:20.660Z,19.98
2019-06-27T04:46:28.762Z,19.94
2019-06-27T04:47:36.812Z,19.92
2019-06-27T04:48:44.900Z,19.99
2019-06-27T04:49:52.957Z,19.95
2019-06-27T04:51:01.021Z,20.01
2019-06-27T04:52:09.134Z,20.03
2019-06-27T04:53:17.637Z,20.01
2019-06-27T04:54:25.301Z,20.03
2019-06-27T04:55:33.397Z,20.01
2019-06-27T04:56:41.463Z,19.95
2019-06-27T04:57:49.449Z,20.06
2019-06-27T04:58:57.506Z,20.05
2019-06-27T05:00:05.579Z,20.13
2019-06-27T05:01:13.653Z,20.06
2019-06-27T05:02:21.724Z,20.08
2019-06-27T05:03:29.790Z,20.08
2019-06-27T05:04:37.878Z,20.20
2019-06-27T05:05:45.912Z,20.21
2019-06-27T05:06:54.023Z,20.18
2019-06-27T05:08:02.072Z,20.29
2019-06-27T05:09:10.135Z,20.14
2019-06-27T05:10:18.199Z,20.26
2019-06-27T05:11:26.265Z,20.33
2019-06-27T05:12:34.380Z,20.31
2019-06-27T05:13:42.430Z,20.31
2019-06-27T05:14:50.484Z,20.38
2019-06-27T05:15:58.563Z,20.36
2019-06-27T05:17:06.631Z,20.41
2019-06-27T05:18:14.698Z,20.47
2019-06-27T05:19:22.763Z,20.51
2019-06-27T05:20:30.839Z,20.50
2019-06-27T05:21:38.910Z,20.55
2019-06-27T05:22:46.981Z,20.58
2019-06-27T05:23:55.130Z,20.64
2019-06-27T05:25:03.109Z,20.64
2019-06-27T05:26:11.183Z,20.67
2019-06-27T05:27:19.239Z,20.67
2019-06-27T05:28:27.330Z,20.69
2019-06-27T05:29:35.380Z,20.69
2019-06-27T05:30:43.486Z,20.74
2019-06-27T05:31:51.538Z,20.79
2019-06-27T05:32:59.605Z,20.87
2019-06-27T05:34:07.668Z,20.92
2019-06-27T05:35:15.785Z,21.04
2019-06-27T05:36:23.819Z,21.01
2019-06-27T05:37:31.887Z,21.06
2019-06-27T05:38:39.953Z,21.06
2019-06-27T05:39:48.009Z,21.12
2019-06-27T05:40:56.079Z,21.19
2019-06-27T05:42:04.168Z,21.16
2019-06-27T05:43:12.220Z,21.14
2019-06-27T05:44:20.304Z,21.24
2019-06-27T05:45:28.357Z,21.22
2019-06-27T05:46:36.425Z,21.27
2019-06-27T05:47:44.505Z,21.34
2019-06-27T05:48:52.574Z,21.32
2019-06-27T05:50:00.661Z,21.38
2019-06-27T05:51:08.735Z,21.46
2019-06-27T05:52:16.786Z,21.47
2019-06-27T05:53:24.854Z,21.52
2019-06-27T05:54:32.941Z,21.59
2019-06-27T05:55:40.986Z,21.68
2019-06-27T05:56:49.074Z,21.54
2019-06-27T05:57:57.139Z,21.69
2019-06-27T05:59:05.196Z,21.77
2019-06-27T06:00:27.146Z,21.80
2019-06-27T06:01:21.374Z,21.90
2019-06-27T06:02:29.429Z,21.90
2019-06-27T06:03:37.486Z,21.98
2019-06-27T06:04:45.574Z,21.96
2019-06-27T06:05:53.612Z,22.06
2019-06-27T06:07:01.687Z,22.17
2019-06-27T06:08:09.785Z,22.12
2019-06-27T06:09:17.829Z,22.15
2019-06-27T06:10:25.889Z,22.21
2019-06-27T06:11:33.977Z,22.36
2019-06-27T06:12:42.061Z,22.31
2019-06-27T06:13:50.148Z,22.46
2019-06-27T06:14:58.196Z,22.40
2019-06-27T06:16:06.254Z,22.55
2019-06-27T06:17:14.328Z,22.55
2019-06-27T06:18:22.427Z,22.64
2019-06-27T06:19:30.491Z,22.60
2019-06-27T06:20:38.544Z,22.68
2019-06-27T06:21:46.612Z,22.73
2019-06-27T06:22:54.691Z,22.76
2019-06-27T06:24:02.763Z,22.91
2019-06-27T06:25:10.851Z,22.88
2019-06-27T06:26:18.906Z,22.92
2019-06-27T06:27:26.980Z,23.05
2019-06-27T06:28:35.056Z,23.05
2019-06-27T06:29:43.125Z,23.10
2019-06-27T06:30:51.222Z,23.17
2019-06-27T06:31:59.265Z,23.28
2019-06-27T06:33:07.319Z,23.36
2019-06-27T06:34:15.453Z,23.38
2019-06-27T06:35:23.490Z,23.46
2019-06-27T06:36:31.609Z,23.54
2019-06-27T06:37:39.597Z,23.58
2019-06-27T06:38:47.686Z,23.72
2019-06-27T06:39:55.757Z,23.80
2019-06-27T06:41:03.864Z,23.78
2019-06-27T06:42:11.917Z,23.80
2019-06-27T06:43:19.987Z,23.79
2019-06-27T06:44:28.066Z,23.94
2019-06-27T06:45:36.093Z,23.87
2019-06-27T06:46:44.221Z,23.94
2019-06-27T06:47:52.276Z,24.06
2019-06-27T06:49:00.375Z,24.06
2019-06-27T06:50:08.417Z,24.09
2019-06-27T06:51:16.497Z,24.22
2019-06-27T06:52:24.568Z,24.25
2019-06-27T06:53:32.631Z,24.31
2019-06-27T06:54:40.710Z,24.32
2019-06-27T06:55:48.785Z,24.37
2019-06-27T06:56:56.857Z,24.45
2019-06-27T06:58:04.916Z,24.39
2019-06-27T06:59:13.002Z,24.52
2019-06-27T07:00:21.081Z,24.46
2019-06-27T07:01:29.163Z,24.53
2019-06-27T07:02:37.215Z,24.52
2019-06-27T07:03:45.301Z,24.52
2019-06-27T07:04:53.346Z,24.61
2019-06-27T07:06:01.442Z,24.85
2019-06-27T07:07:12.890Z,24.83
2019-06-27T07:08:17.575Z,24.96
2019-06-27T07:09:25.655Z,24.91
2019-06-27T07:10:33.723Z,25.05
2019-06-27T07:11:41.809Z,24.99
2019-06-27T07:12:49.860Z,25.06
2019-06-27T07:13:57.937Z,25.17
2019-06-27T07:15:05.990Z,25.17
2019-06-27T07:16:14.078Z,25.30
2019-06-27T07:17:22.154Z,25.30
2019-06-27T07:18:30.269Z,25.38
2019-06-27T07:19:38.346Z,25.46
2019-06-27T07:20:46.367Z,25.39
2019-06-27T07:21:54.450Z,25.43
2019-06-27T07:23:02.691Z,25.57
2019-06-27T07:24:10.613Z,25.60
2019-06-27T07:25:18.687Z,25.65
2019-06-27T07:26:26.731Z,25.65
2019-06-27T07:27:34.824Z,25.72
2019-06-27T07:28:42.947Z,25.79
2019-06-27T07:29:50.966Z,25.82
2019-06-27T07:30:59.049Z,25.88
2019-06-27T07:32:07.117Z,25.85
2019-06-27T07:33:15.191Z,25.97
2019-06-27T07:34:23.275Z,25.92
2019-06-27T07:35:31.356Z,26.01
2019-06-27T07:36:40.433Z,26.06
2019-06-27T07:37:48.477Z,26.07
2019-06-27T07:38:56.551Z,26.02
2019-06-27T07:40:06.705Z,26.23
2019-06-27T07:43:47.932Z,26.30
2019-06-27T07:46:24.348Z,26.35
2019-06-27T07:47:21.131Z,26.39
2019-06-27T07:48:29.208Z,26.43
2019-06-27T07:49:37.288Z,26.50
2019-06-27T07:50:45.361Z,26.52
2019-06-27T07:51:53.434Z,26.54
2019-06-27T07:53:01.584Z,26.57
2019-06-27T07:54:09.575Z,26.55
2019-06-27T07:55:17.653Z,26.66
2019-06-27T07:56:25.736Z,26.69
2019-06-27T07:57:33.788Z,26.69
2019-06-27T07:58:41.875Z,26.70
2019-06-27T07:59:49.952Z,26.82
2019-06-27T08:00:58.017Z,26.77
2019-06-27T08:02:06.079Z,26.73
2019-06-27T08:04:22.233Z,26.89
2019-06-27T08:05:30.358Z,26.85
2019-06-27T08:06:38.418Z,26.89
2019-06-27T08:07:46.488Z,26.85
2019-06-27T08:08:54.530Z,26.92
2019-06-27T08:10:02.601Z,27.00
2019-06-27T08:11:10.667Z,27.06
2019-06-27T08:12:18.754Z,27.07
2019-06-27T08:13:26.826Z,27.13
2019-06-27T08:14:34.901Z,27.14
2019-06-27T08:15:42.960Z,27.25
2019-06-27T08:16:51.053Z,27.25
2019-06-27T08:17:59.112Z,27.28
2019-06-27T08:19:07.221Z,27.27
2019-06-27T08:20:15.300Z,27.37
2019-06-27T08:21:24.733Z,27.43
2019-06-27T08:22:32.829Z,27.40
2019-06-27T08:23:42.004Z,27.44
2019-06-27T08:24:48.973Z,27.50
2019-06-27T08:25:57.054Z,27.50
2019-06-27T08:27:05.111Z,27.60
2019-06-27T08:28:13.265Z,27.59
2019-06-27T08:29:21.270Z,27.54
2019-06-27T08:30:29.316Z,27.66
2019-06-27T08:31:50.440Z,27.59
2019-06-27T08:32:45.607Z,27.69
2019-06-27T08:33:53.553Z,27.70
2019-06-27T08:35:05.066Z,27.74
2019-06-27T08:36:13.128Z,27.79
2019-06-27T08:37:21.206Z,27.78
2019-06-27T08:38:29.278Z,27.87
2019-06-27T08:39:37.375Z,27.79
2019-06-27T08:40:45.449Z,27.82
2019-06-27T08:41:53.495Z,27.93
2019-06-27T08:43:01.652Z,27.87
2019-06-27T08:44:09.640Z,27.97
2019-06-27T08:45:17.770Z,27.92
2019-06-27T08:46:25.794Z,27.97
2019-06-27T08:47:33.926Z,28.09
2019-06-27T08:48:41.994Z,28.17
2019-06-27T08:49:50.071Z,28.19
2019-06-27T08:50:58.103Z,28.29
2019-06-27T08:52:06.207Z,28.33
2019-06-27T08:53:14.241Z,28.44
2019-06-27T08:54:22.384Z,28.54
2019-06-27T08:55:30.444Z,28.41
2019-06-27T08:56:38.558Z,28.64
2019-06-27T08:57:46.606Z,28.62
2019-06-27T08:58:54.650Z,28.71
2019-06-27T09:00:02.733Z,28.73
2019-06-27T09:01:10.806Z,28.88
2019-06-27T09:02:18.910Z,28.93
2019-06-27T09:03:26.975Z,29.19
2019-06-27T09:04:35.316Z,29.31
2019-06-27T09:05:43.115Z,29.45
2019-06-27T09:06:51.203Z,29.53
2019-06-27T09:07:59.275Z,29.78
2019-06-27T09:09:07.374Z,30.13
2019-06-27T09:10:15.429Z,30.47
2019-06-27T09:11:23.564Z,30.88
2019-06-27T09:12:31.581Z,31.31
2019-06-27T09:13:39.687Z,31.69
2019-06-27T09:14:47.775Z,32.06
2019-06-27T09:15:55.846Z,32.44
2019-06-27T09:17:03.918Z,32.84
2019-06-27T09:18:13.203Z,33.37
2019-06-27T09:19:21.292Z,33.91
2019-06-27T09:20:29.376Z,34.34
2019-06-27T09:21:37.446Z,34.82
2019-06-27T09:22:45.515Z,35.25
2019-06-27T09:23:53.608Z,35.52
2019-06-27T09:25:02.074Z,35.72
2019-06-27T09:26:09.824Z,36.07
2019-06-27T09:27:17.870Z,36.53
2019-06-27T09:28:25.976Z,36.90
2019-06-27T09:29:34.051Z,37.22
2019-06-27T09:30:42.131Z,37.57
2019-06-27T09:31:51.626Z,37.89
2019-06-27T09:32:58.297Z,38.19
2019-06-27T09:34:06.355Z,38.37
2019-06-27T09:35:14.494Z,38.41
2019-06-27T09:36:22.527Z,38.37
2019-06-27T09:37:30.641Z,38.53
2019-06-27T09:38:42.573Z,38.72
2019-06-27T09:39:51.507Z,38.99
2019-06-27T09:40:59.550Z,39.18
2019-06-27T09:42:07.608Z,39.45
2019-06-27T09:43:15.720Z,39.88
2019-06-27T09:44:23.784Z,39.89
2019-06-27T09:45:31.872Z,40.19
2019-06-27T09:46:39.974Z,40.32
2019-06-27T09:47:48.054Z,40.32
2019-06-27T09:48:56.157Z,40.35
2019-06-27T09:50:04.231Z,40.50
2019-06-27T09:51:12.325Z,40.65
2019-06-27T09:52:20.412Z,40.92
2019-06-27T09:53:28.506Z,41.11
2019-06-27T09:54:36.604Z,41.32
2019-06-27T09:55:47.307Z,41.42
2019-06-27T09:56:52.776Z,41.66
2019-06-27T09:58:00.865Z,41.84
2019-06-27T09:59:08.961Z,42.01
2019-06-27T10:00:17.088Z,42.06
2019-06-27T10:01:25.134Z,42.35
2019-06-27T10:02:41.316Z,42.55
2019-06-27T10:03:41.311Z,42.66
2019-06-27T10:04:49.413Z,42.81
2019-06-27T10:05:57.517Z,42.93
2019-06-27T10:07:05.591Z,42.95
2019-06-27T10:08:13.706Z,42.98
2019-06-27T10:09:21.807Z,42.99
2019-06-27T10:10:29.924Z,43.05
2019-06-27T10:11:37.971Z,43.23
2019-06-27T10:12:46.054Z,43.27
2019-06-27T10:13:54.140Z,43.46
2019-06-27T10:15:02.255Z,43.59
2019-06-27T10:16:10.335Z,43.60
2019-06-27T10:17:18.406Z,43.72
2019-06-27T10:18:26.507Z,43.81
2019-06-27T10:19:34.608Z,43.76
2019-06-27T10:20:42.697Z,43.73
2019-06-27T10:21:50.806Z,43.78
2019-06-27T10:22:58.907Z,43.86
2019-06-27T10:24:06.990Z,43.93
2019-06-27T10:25:15.100Z,44.03
2019-06-27T10:26:23.181Z,43.97
2019-06-27T10:27:31.266Z,44.02
2019-06-27T10:28:39.431Z,44.18
2019-06-27T10:29:47.445Z,44.34
2019-06-27T10:30:55.564Z,44.47
2019-06-27T10:32:03.665Z,44.64
2019-06-27T10:33:11.735Z,44.79
2019-06-27T10:34:19.840Z,44.88
2019-06-27T10:35:27.911Z,45.04
2019-06-27T10:36:38.379Z,45.07
2019-06-27T10:37:44.107Z,45.01
2019-06-27T10:38:52.199Z,45.13
2019-06-27T10:40:00.283Z,45.24
2019-06-27T10:41:08.398Z,45.35
2019-06-27T10:42:16.600Z,45.42
2019-06-27T10:43:24.581Z,45.55
2019-06-27T10:44:32.677Z,45.55
2019-06-27T10:45:40.775Z,45.62
2019-06-27T10:46:48.938Z,45.66
2019-06-27T10:47:56.951Z,45.62
2019-06-27T10:49:05.066Z,45.43
2019-06-27T10:50:13.161Z,45.36
2019-06-27T10:51:21.235Z,45.50
2019-06-27T10:52:29.347Z,45.60
2019-06-27T10:53:37.433Z,45.62
2019-06-27T10:54:45.510Z,45.66
2019-06-27T10:55:53.615Z,45.58
2019-06-27T10:57:01.706Z,45.45
2019-06-27T10:58:09.814Z,45.47
2019-06-27T10:59:18.028Z,45.20
2019-06-27T11:00:25.986Z,45.27
2019-06-27T11:01:34.101Z,45.08
2019-06-27T11:02:42.188Z,44.97
2019-06-27T11:03:50.334Z,45.05
2019-06-27T11:04:58.374Z,45.19
2019-06-27T11:06:06.512Z,45.16
2019-06-27T11:07:14.579Z,45.14
2019-06-27T11:08:22.661Z,45.24
2019-06-27T11:09:30.791Z,45.36
2019-06-27T11:10:38.861Z,45.47
2019-06-27T11:11:46.978Z,45.60
2019-06-27T11:12:55.054Z,45.66
2019-06-27T11:14:03.156Z,45.74
2019-06-27T11:15:11.241Z,45.85
2019-06-27T11:16:19.325Z,45.93
2019-06-27T11:17:27.433Z,46.04
2019-06-27T11:18:35.501Z,46.11
2019-06-27T11:19:52.180Z,46.27
2019-06-27T11:20:51.705Z,46.33
2019-06-27T11:21:59.828Z,46.47
2019-06-27T11:23:07.902Z,46.56
2019-06-27T11:24:15.982Z,46.54
2019-06-27T11:25:24.088Z,46.66
2019-06-27T11:26:32.190Z,46.72
2019-06-27T11:27:40.292Z,46.58
2019-06-27T11:28:48.405Z,46.62
2019-06-27T11:29:56.485Z,46.43
2019-06-27T11:31:04.584Z,46.37
2019-06-27T11:32:12.699Z,46.31
2019-06-27T11:33:31.802Z,46.33
2019-06-27T11:34:28.948Z,46.37
2019-06-27T11:35:36.981Z,46.21
2019-06-27T11:36:46.608Z,45.91
2019-06-27T11:37:53.174Z,45.35
2019-06-27T11:39:01.354Z,45.24
2019-06-27T11:40:11.952Z,45.02
2019-06-27T11:41:17.530Z,44.59
2019-06-27T11:42:25.521Z,44.41
2019-06-27T11:43:33.600Z,44.21
2019-06-27T11:44:41.708Z,43.97
2019-06-27T11:45:49.806Z,43.81
2019-06-27T11:46:57.898Z,43.78
2019-06-27T11:48:05.983Z,43.78
2019-06-27T11:49:14.099Z,43.66
2019-06-27T11:50:22.165Z,43.59
2019-06-27T11:51:30.277Z,43.75
2019-06-27T11:52:38.361Z,43.84
2019-06-27T11:53:46.458Z,43.88
2019-06-27T11:54:54.608Z,44.03
2019-06-27T11:56:02.640Z,44.07
2019-06-27T11:57:10.722Z,44.14
2019-06-27T11:58:18.823Z,44.43
2019-06-27T11:59:26.926Z,44.60
2019-06-27T12:00:34.999Z,44.79
2019-06-27T12:01:43.114Z,44.78
2019-06-27T12:02:51.186Z,44.78
2019-06-27T12:03:59.306Z,44.80
2019-06-27T12:05:07.359Z,44.67
2019-06-27T12:06:15.446Z,44.62
2019-06-27T12:07:23.552Z,44.53
2019-06-27T12:08:31.730Z,44.37
2019-06-27T12:09:39.717Z,44.05
2019-06-27T12:10:47.838Z,43.78
2019-06-27T12:11:55.906Z,43.59
2019-06-27T12:13:04.015Z,43.30
2019-06-27T12:14:12.103Z,43.07
2019-06-27T12:15:20.273Z,42.78
2019-06-27T12:16:28.293Z,42.43
2019-06-27T12:17:36.350Z,42.20
2019-06-27T12:18:44.487Z,41.99
2019-06-27T12:19:52.562Z,41.74
2019-06-27T12:21:00.644Z,41.57
2019-06-27T12:22:08.732Z,41.36
2019-06-27T12:23:16.964Z,41.25
2019-06-27T12:24:25.069Z,41.06
2019-06-27T12:25:33.005Z,40.83
2019-06-27T12:26:41.092Z,40.60
2019-06-27T12:27:49.186Z,40.46
2019-06-27T12:28:57.256Z,40.15
2019-06-27T12:30:05.367Z,39.94
2019-06-27T12:31:20.273Z,39.70
2019-06-27T12:32:21.537Z,39.40
2019-06-27T12:33:29.621Z,39.14
2019-06-27T12:34:37.730Z,38.88
2019-06-27T12:35:45.847Z,38.61
2019-06-27T12:36:53.915Z,38.40
2019-06-27T12:38:01.976Z,38.19
2019-06-27T12:39:10.061Z,38.09
2019-06-27T12:40:18.170Z,38.01
2019-06-27T12:41:26.230Z,37.79
2019-06-27T12:42:34.327Z,37.79
2019-06-27T12:43:42.400Z,37.69
2019-06-27T12:44:50.497Z,37.50
2019-06-27T12:45:58.579Z,37.29
2019-06-27T12:47:06.681Z,37.09
2019-06-27T12:48:14.735Z,36.87
2019-06-27T12:49:22.829Z,36.68
2019-06-27T12:50:30.960Z,36.47
2019-06-27T12:51:39.006Z,36.29
2019-06-27T12:52:47.061Z,36.17
2019-06-27T12:53:56.062Z,36.00
2019-06-27T12:55:03.251Z,35.84
2019-06-27T12:56:11.334Z,35.65
2019-06-27T12:57:19.431Z,35.60
2019-06-27T12:58:27.478Z,35.38
2019-06-27T12:59:35.564Z,35.23
2019-06-27T13:00:43.680Z,35.14
2019-06-27T13:01:51.762Z,35.00
2019-06-27T13:02:59.830Z,34.99
2019-06-27T13:04:22.172Z,34.81
2019-06-27T13:05:16.096Z,34.72
2019-06-27T13:06:24.083Z,34.47
2019-06-27T13:07:34.051Z,34.43
2019-06-27T13:08:40.233Z,34.44
2019-06-27T13:09:48.305Z,34.44
2019-06-27T13:10:56.377Z,34.37
2019-06-27T13:12:04.492Z,34.35
2019-06-27T13:13:12.569Z,34.34
2019-06-27T13:14:20.644Z,34.27
2019-06-27T13:15:28.722Z,34.30
2019-06-27T13:16:36.809Z,34.28
2019-06-27T13:17:44.887Z,34.13
2019-06-27T13:18:52.981Z,34.16
2019-06-27T13:20:01.053Z,34.06
2019-06-27T13:21:09.147Z,34.02
2019-06-27T13:22:17.222Z,33.95
2019-06-27T13:23:25.281Z,33.87
2019-06-27T13:24:33.373Z,33.86
2019-06-27T13:25:41.462Z,33.91
2019-06-27T13:26:49.554Z,33.94
2019-06-27T13:27:57.615Z,34.05
2019-06-27T13:29:05.700Z,33.95
2019-06-27T13:30:13.783Z,34.03
2019-06-27T13:31:21.895Z,34.02
2019-06-27T13:32:29.940Z,34.06
2019-06-27T13:33:38.001Z,34.00
2019-06-27T13:34:46.098Z,34.05
2019-06-27T13:35:54.201Z,33.95
2019-06-27T13:37:02.298Z,33.98
2019-06-27T13:38:10.346Z,33.98
2019-06-27T13:39:18.419Z,33.94
2019-06-27T13:40:26.493Z,33.97
2019-06-27T13:41:34.596Z,33.91
2019-06-27T13:42:42.667Z,33.86
2019-06-27T13:43:50.742Z,33.69
2019-06-27T13:44:58.826Z,33.59
2019-06-27T13:46:06.914Z,33.56
2019-06-27T13:47:14.992Z,33.44
2019-06-27T13:48:23.061Z,33.35
2019-06-27T13:49:31.170Z,33.31
2019-06-27T13:50:39.205Z,33.16
2019-06-27T13:51:47.318Z,33.12
2019-06-27T13:52:55.377Z,33.09
2019-06-27T13:54:03.472Z,33.01
2019-06-27T13:55:11.536Z,32.92
2019-06-27T13:56:19.625Z,32.93
2019-06-27T13:57:27.686Z,32.96
2019-06-27T13:58:35.790Z,32.93
2019-06-27T13:59:43.869Z,32.88
2019-06-27T14:00:51.961Z,32.75
2019-06-27T14:02:00.021Z,32.81
2019-06-27T14:03:08.102Z,32.72
2019-06-27T14:04:16.180Z,32.67
2019-06-27T14:05:24.270Z,32.69
2019-06-27T14:06:32.351Z,32.59
2019-06-27T14:07:40.409Z,32.57
2019-06-27T14:08:48.501Z,32.59
2019-06-27T14:09:57.389Z,32.62
2019-06-27T14:11:04.652Z,32.65
2019-06-27T14:12:12.739Z,32.65
2019-06-27T14:13:20.805Z,32.65
2019-06-27T14:14:28.932Z,32.67
2019-06-27T14:15:37.002Z,32.60
2019-06-27T14:16:45.081Z,32.57
2019-06-27T14:17:53.170Z,32.57
2019-06-27T14:19:01.216Z,32.57
2019-06-27T14:20:09.319Z,32.59
2019-06-27T14:21:17.378Z,32.59
2019-06-27T14:22:33.100Z,32.57
2019-06-27T14:23:33.523Z,32.55
2019-06-27T14:24:41.602Z,32.56
2019-06-27T14:25:49.684Z,32.50
2019-06-27T14:26:57.760Z,32.43
2019-06-27T14:28:05.834Z,32.45
2019-06-27T14:29:13.922Z,32.47
2019-06-27T14:30:21.996Z,32.47
2019-06-27T14:31:30.087Z,32.47
2019-06-27T14:32:38.164Z,32.44
2019-06-27T14:33:46.218Z,32.32
2019-06-27T14:34:54.334Z,32.35
2019-06-27T14:36:02.417Z,32.33
2019-06-27T14:37:10.479Z,32.22
2019-06-27T14:38:18.551Z,32.37
2019-06-27T14:39:26.717Z,32.33
2019-06-27T14:40:34.719Z,32.38
2019-06-27T14:41:42.808Z,32.32
2019-06-27T14:42:50.887Z,32.37